createdAt,value
2018-09-01T00:00:20.258Z,100803.37
2018-09-01T00:05:24.055Z,100803.08
2018-09-01T00:10:27.612Z,100811.42
2018-09-01T00:15:31.205Z,100819.15
2018-09-01T00:20:34.852Z,100824.86
2018-09-01T00:25:38.446Z,100825.55
2018-09-01T00:30:42.052Z,100833.87
2018-09-01T00:35:45.674Z,100818.47
2018-09-01T00:40:49.317Z,100811.05
2018-09-01T00:45:52.948Z,100823.91
2018-09-01T00:50:56.579Z,100818.33
2018-09-01T00:56:00.202Z,100808.70
2018-09-01T01:01:03.825Z,100812.48
2018-09-01T01:06:07.460Z,100815.48
2018-09-01T01:11:11.171Z,100815.20
2018-09-01T01:16:14.989Z,100809.53
2018-09-01T01:21:18.830Z,100817.45
2018-09-01T01:26:22.485Z,100823.03
2018-09-01T01:31:26.223Z,100848.38
2018-09-01T01:36:29.838Z,100833.83
2018-09-01T01:41:33.450Z,100830.37
2018-09-01T01:46:37.110Z,100844.95
2018-09-01T01:51:40.804Z,100853.72
2018-09-01T01:56:44.498Z,100832.73
2018-09-01T02:01:48.131Z,100827.52
2018-09-01T02:06:52.701Z,100825.91
2018-09-01T02:11:56.314Z,100831.38
2018-09-01T02:16:59.899Z,100836.51
2018-09-01T02:22:03.596Z,100841.60
2018-09-01T02:27:07.255Z,100843.17
2018-09-01T02:32:10.907Z,100851.45
2018-09-01T02:37:14.714Z,100851.55
2018-09-01T02:42:18.373Z,100842.78
2018-09-01T02:47:21.966Z,100839.70
2018-09-01T02:52:25.660Z,100832.20
2018-09-01T02:57:29.284Z,100831.42
2018-09-01T03:02:38.077Z,100835.58
2018-09-01T03:07:41.698Z,100831.25
2018-09-01T03:12:45.291Z,100836.84
2018-09-01T03:17:48.956Z,100835.59
2018-09-01T03:22:52.616Z,100834.84
2018-09-01T03:27:56.953Z,100846.19
2018-09-01T03:33:00.622Z,100839.55
2018-09-01T03:38:04.255Z,100835.20
2018-09-01T03:43:07.907Z,100835.30
2018-09-01T03:48:11.562Z,100829.16
2018-09-01T03:53:15.270Z,100849.38
2018-09-01T03:58:18.865Z,100859.48
2018-09-01T04:03:22.517Z,100860.83
2018-09-01T04:08:26.114Z,100872.58
2018-09-01T04:13:29.720Z,100876.25
2018-09-01T04:18:33.405Z,100876.80
2018-09-01T04:23:37.009Z,100878.15
2018-09-01T04:28:40.590Z,100886.23
2018-09-01T04:33:44.195Z,100884.96
2018-09-01T04:38:47.811Z,100890.77
2018-09-01T04:43:51.434Z,100891.81
2018-09-01T04:48:55.086Z,100906.15
2018-09-01T04:53:58.698Z,100911.16
2018-09-01T04:59:02.407Z,100912.13
2018-09-01T05:04:05.995Z,100919.53
2018-09-01T05:09:09.706Z,100922.05
2018-09-01T05:14:13.360Z,100920.28
2018-09-01T05:19:16.982Z,100924.81
2018-09-01T05:24:20.596Z,100916.73
2018-09-01T05:29:24.228Z,100917.59
2018-09-01T05:34:27.793Z,100925.68
2018-09-01T05:39:31.395Z,100930.59
2018-09-01T05:44:34.983Z,100930.13
2018-09-01T05:49:38.610Z,100939.47
2018-09-01T05:54:42.212Z,100936.67
2018-09-01T05:59:45.831Z,100936.77
2018-09-01T06:04:49.433Z,100943.41
2018-09-01T06:09:53.004Z,100948.25
2018-09-01T06:19:59.197Z,100940.36
2018-09-01T06:25:02.892Z,100953.67
2018-09-01T06:30:08.260Z,100953.47
2018-09-01T06:35:11.865Z,100949.80
2018-09-01T06:40:15.537Z,100949.80
2018-09-01T06:45:19.135Z,100950.41
2018-09-01T06:50:22.763Z,100951.83
2018-09-01T06:55:26.368Z,100964.77
2018-09-01T07:00:30.009Z,100957.91
2018-09-01T07:05:33.585Z,100968.52
2018-09-01T07:10:37.198Z,100974.50
2018-09-01T07:15:40.787Z,100974.00
2018-09-01T07:20:44.330Z,100978.64
2018-09-01T07:25:47.963Z,100986.03
2018-09-01T07:30:51.737Z,100981.05
2018-09-01T07:35:55.239Z,100993.20
2018-09-01T07:40:58.872Z,100990.88
2018-09-01T07:46:02.502Z,100991.45
2018-09-01T07:51:06.211Z,100985.84
2018-09-01T07:56:09.921Z,100992.89
2018-09-01T08:01:13.484Z,100992.20
2018-09-01T08:06:17.084Z,100996.25
2018-09-01T08:11:20.671Z,100997.04
2018-09-01T08:16:24.281Z,101004.72
2018-09-01T08:21:27.929Z,101006.08
2018-09-01T08:26:31.578Z,101015.06
2018-09-01T08:31:35.063Z,101015.59
2018-09-01T08:36:38.635Z,101018.83
2018-09-01T08:41:42.288Z,101018.02
2018-09-01T08:46:45.961Z,101011.48
2018-09-01T08:51:49.583Z,101005.61
2018-09-01T08:56:53.598Z,101011.80
2018-09-01T09:01:57.270Z,101011.42
2018-09-01T09:07:00.849Z,101013.73
2018-09-01T09:12:04.487Z,101007.64
2018-09-01T09:17:08.158Z,101009.87
2018-09-01T09:22:11.777Z,101007.83
2018-09-01T09:27:15.351Z,101001.18
2018-09-01T09:32:18.918Z,101006.70
2018-09-01T09:37:22.477Z,101021.66
2018-09-01T09:42:26.085Z,101014.67
2018-09-01T09:47:29.787Z,101022.10
2018-09-01T09:52:33.326Z,101017.84
2018-09-01T09:57:36.872Z,101017.88
2018-09-01T10:02:40.462Z,101004.72
2018-09-01T10:07:44.001Z,101005.98
2018-09-01T10:12:47.605Z,101002.69
2018-09-01T10:17:51.270Z,100998.29
2018-09-01T10:22:54.826Z,100991.73
2018-09-01T10:28:00.273Z,100991.25
2018-09-01T10:33:03.941Z,100989.83
2018-09-01T10:38:07.573Z,100981.91
2018-09-01T10:43:11.258Z,100982.56
2018-09-01T10:48:14.846Z,100979.20
2018-09-01T10:53:18.461Z,100978.44
2018-09-01T10:58:22.282Z,100976.38
2018-09-01T11:03:25.950Z,100971.67
2018-09-01T11:08:29.598Z,100969.48
2018-09-01T11:13:33.170Z,100971.98
2018-09-01T11:18:36.718Z,100970.81
2018-09-01T11:23:40.353Z,100972.95
2018-09-01T11:28:44.486Z,100970.42
2018-09-01T11:33:48.111Z,100977.17
2018-09-01T11:38:51.764Z,100972.35
2018-09-01T11:43:55.765Z,100972.84
2018-09-01T11:48:59.341Z,100977.75
2018-09-01T11:54:03.091Z,100972.66
2018-09-01T11:59:07.069Z,100965.97
2018-09-01T12:04:11.037Z,100970.33
2018-09-01T12:09:14.748Z,100967.45
2018-09-01T12:14:18.505Z,100968.05
2018-09-01T12:19:22.419Z,100972.53
2018-09-01T12:24:26.020Z,100968.75
2018-09-01T12:29:29.615Z,100975.05
2018-09-01T12:34:33.274Z,100973.70
2018-09-01T12:39:36.939Z,100978.39
2018-09-01T12:44:40.586Z,100978.50
2018-09-01T12:49:44.214Z,100980.53
2018-09-01T12:54:47.860Z,100977.58
2018-09-01T12:59:51.513Z,100970.59
2018-09-01T13:04:55.152Z,100974.72
2018-09-01T13:09:58.769Z,100971.45
2018-09-01T13:15:02.489Z,100970.11
2018-09-01T13:20:06.082Z,100960.52
2018-09-01T13:25:09.737Z,100965.33
2018-09-01T13:30:13.537Z,100966.39
2018-09-01T13:35:17.124Z,100969.63
2018-09-01T13:40:20.773Z,100970.91
2018-09-01T13:45:24.429Z,100963.95
2018-09-01T13:50:28.069Z,100972.73
2018-09-01T13:55:31.652Z,100969.55
2018-09-01T14:00:35.246Z,100964.40
2018-09-01T14:05:38.877Z,100967.88
2018-09-01T14:10:42.461Z,100967.39
2018-09-01T14:15:46.078Z,100963.91
2018-09-01T14:20:49.646Z,100955.61
2018-09-01T14:25:53.351Z,100953.77
2018-09-01T14:30:56.983Z,100955.61
2018-09-01T14:36:04.074Z,100953.28
2018-09-01T14:41:04.638Z,100947.38
2018-09-01T14:46:08.315Z,100953.08
2018-09-01T14:51:12.164Z,100952.19
2018-09-01T14:56:15.766Z,100952.48
2018-09-01T15:01:19.424Z,100954.58
2018-09-01T15:06:23.104Z,100949.17
2018-09-01T15:11:33.039Z,100953.60
2018-09-01T15:16:36.672Z,100957.20
2018-09-01T15:21:40.231Z,100952.25
2018-09-01T15:26:43.817Z,100959.13
2018-09-01T15:31:47.440Z,100961.77
2018-09-01T15:36:51.065Z,100964.69
2018-09-01T15:41:54.725Z,100967.09
2018-09-01T15:46:58.427Z,100968.19
2018-09-01T15:52:01.980Z,100977.95
2018-09-01T15:57:06.084Z,100980.93
2018-09-01T16:02:09.719Z,100978.16
2018-09-01T16:07:13.420Z,100983.38
2018-09-01T16:12:17.084Z,100990.65
2018-09-01T16:17:20.696Z,100992.41
2018-09-01T16:22:24.345Z,100995.52
2018-09-01T16:27:27.969Z,100995.14
2018-09-01T16:32:31.585Z,101002.97
2018-09-01T16:37:35.228Z,101000.38
2018-09-01T16:42:38.821Z,101000.30
2018-09-01T16:47:42.489Z,101009.94
2018-09-01T16:52:46.146Z,101009.25
2018-09-01T16:57:49.835Z,101004.83
2018-09-01T17:02:56.931Z,101009.73
2018-09-01T17:08:00.893Z,101013.90
2018-09-01T17:13:04.730Z,101012.26
2018-09-01T17:18:08.608Z,101013.48
2018-09-01T17:23:12.391Z,101006.24
2018-09-01T17:28:16.078Z,101004.59
2018-09-01T17:33:20.257Z,101003.33
2018-09-01T17:38:23.865Z,101006.86
2018-09-01T17:43:27.567Z,101017.94
2018-09-01T17:48:31.161Z,101013.02
2018-09-01T17:53:34.841Z,101026.42
2018-09-01T17:58:38.465Z,101021.58
2018-09-01T18:03:42.057Z,101023.91
2018-09-01T18:08:45.649Z,101033.47
2018-09-01T18:13:49.963Z,101035.77
2018-09-01T18:18:53.667Z,101029.00
2018-09-01T18:23:57.238Z,101032.46
2018-09-01T18:29:00.825Z,101030.51
2018-09-01T18:34:04.465Z,101037.56
2018-09-01T18:39:09.618Z,101039.59
2018-09-01T18:44:13.831Z,101045.86
2018-09-01T18:49:17.844Z,101048.83
2018-09-01T18:54:21.450Z,101051.72
2018-09-01T18:59:25.156Z,101055.28
2018-09-01T19:04:28.833Z,101056.52
2018-09-01T19:09:32.651Z,101049.20
2018-09-01T19:14:37.519Z,101052.27
2018-09-01T19:19:41.193Z,101048.48
2018-09-01T19:24:44.885Z,101058.24
2018-09-01T19:29:48.658Z,101048.37
2018-09-01T19:34:52.381Z,101046.45
2018-09-01T19:39:56.051Z,101052.34
2018-09-01T19:45:00.001Z,101056.77
2018-09-01T19:50:05.844Z,101054.44
2018-09-01T19:55:09.784Z,101059.85
2018-09-01T20:00:14.536Z,101057.03
2018-09-01T20:05:18.252Z,101047.57
2018-09-01T20:10:21.933Z,101043.14
2018-09-01T20:15:25.655Z,101046.63
2018-09-01T20:20:29.429Z,101045.34
2018-09-01T20:25:33.142Z,101048.36
2018-09-01T20:30:36.714Z,101054.14
2018-09-01T20:35:45.487Z,101061.88
2018-09-01T20:40:50.100Z,101063.60
2018-09-01T20:45:53.739Z,101065.82
2018-09-01T20:50:57.397Z,101073.06
2018-09-01T20:56:01.007Z,101070.36
2018-09-01T21:01:04.832Z,101061.66
2018-09-01T21:06:08.904Z,101068.41
2018-09-01T21:11:12.869Z,101067.84
2018-09-01T21:16:17.331Z,101062.44
2018-09-01T21:21:21.013Z,101068.03
2018-09-01T21:26:24.769Z,101068.15
2018-09-01T21:31:28.437Z,101060.90
2018-09-01T21:36:32.044Z,101054.14
2018-09-01T21:41:35.717Z,101056.36
2018-09-01T21:46:39.432Z,101053.16
2018-09-01T21:51:43.124Z,101055.87
2018-09-01T21:56:46.856Z,101049.48
2018-09-01T22:01:55.797Z,101049.11
2018-09-01T22:06:59.411Z,101044.56
2018-09-01T22:12:03.022Z,101047.37
2018-09-01T22:17:06.667Z,101057.70
2018-09-01T22:22:10.249Z,101054.63
2018-09-01T22:27:13.805Z,101050.08
2018-09-01T22:32:17.475Z,101051.20
2018-09-01T22:37:21.039Z,101050.45
2018-09-01T22:42:24.802Z,101049.59
2018-09-01T22:47:30.295Z,101050.95
2018-09-01T22:52:33.944Z,101054.02
2018-09-01T22:57:37.613Z,101052.30
2018-09-01T23:02:41.155Z,101048.23
2018-09-01T23:07:44.797Z,101048.06
2018-09-01T23:12:48.378Z,101044.19
2018-09-01T23:17:51.992Z,101047.20
2018-09-01T23:22:55.648Z,101059.85
2018-09-01T23:27:59.308Z,101063.63
2018-09-01T23:33:02.960Z,101065.35
2018-09-01T23:38:06.684Z,101063.51
2018-09-01T23:43:10.335Z,101067.57
2018-09-01T23:48:13.977Z,101064.30
2018-09-01T23:53:17.631Z,101064.67
2018-09-01T23:58:21.217Z,101057.79
